Pagrindinis puslapis
METAR-TAF:

METAR-TAF

Oro uostai :

Beirutas, Libanas

platuma: 33-49N, ilguma: 035-29E, Aukštis: 29 m

Dabartinis oras

Ataskaita buvo paskelbta 58 minutes, ne 04:00 UTC
Vėjas 6 kt iš Pietryčių, svyruoja nuo Rytų ir Pietų/Pietryčių
Temperatūra 25°C
Drėgmė 54%
Slėgis 1015 hPa
Matomumas 10 km arba daugiau
nėra debesų žemiau 1500 m ir nėra kamuolinių lietaus debesų

METAR: OLBA 180400Z 14006KT 100V160 CAVOK 25/15 Q1015 NOSIG

Laikas: 07:58 (04:58 UTC)

Prognozė

Ataskaita buvo paskelbta 6 valandos ir 58 minutes, ne 22:00 UTC
Prognozė galioja nuo 18 metu 00 UTC su 19 metu 06 UTC
Vėjas 3 kt nuo kintamojo kryptimis
Matomumas: 8000 m
Mažai debesys ne aukštis 2400 ft
Tapsmas
nuo 18 metu 09 UTC su 18 metu 12 UTC
Vėjas 10 kt iš Šiaurės su gūsio iki 20 kt
Tapsmas
nuo 18 metu 21 UTC su 18 metu 24 UTC
Vėjas 3 kt nuo kintamojo kryptimis

TAF: OLBA 172200Z 1800/1906 VRB03KT 8000 FEW024 BECMG 1809/1812 36010G20KT BECMG 1821/1824 VRB03KT

Orai ataskaitas ir orų prognozės (METAR, TAF).

turimą stotys yra geltonos ir raudonos taškus žemėlapyje.

Perkelti pele per norėdami pamatyti stoties vardą.

Tada spustelėkite, norėdami matyti oro stebėjimo ir prognozės.

Norėdami pakeisti žemėlapį: spustelėkite ant žalios mygtukų su juodo kryžiaus žemyn,; žalią mygtuką su brūkšneliu, jei norite nutolinti; arba žalių rodyklių gretimoms žemėlapius.


METAR-TAF: